createdAt,value
2023-04-19T00:02:42.893Z,1.33
2023-04-19T00:05:45.364Z,0.90
2023-04-19T00:08:48.184Z,0.98
2023-04-19T00:11:50.392Z,1.20
2023-04-19T00:14:52.323Z,0.80
2023-04-19T00:17:54.564Z,1.13
2023-04-19T00:20:56.687Z,0.90
2023-04-19T00:23:58.934Z,1.98
2023-04-19T00:27:01.969Z,0.95
2023-04-19T00:30:04.341Z,1.00
2023-04-19T00:33:12.782Z,1.10
2023-04-19T00:36:15.019Z,1.15
2023-04-19T00:39:17.094Z,1.40
2023-04-19T00:42:19.087Z,1.02
2023-04-19T00:45:22.130Z,1.23
2023-04-19T00:48:24.381Z,0.97
2023-04-19T00:51:27.314Z,0.98
2023-04-19T00:54:30.163Z,1.02
2023-04-19T00:57:32.505Z,0.93
2023-04-19T01:00:35.460Z,1.02
2023-04-19T01:03:37.630Z,0.90
2023-04-19T01:06:41.400Z,1.52
2023-04-19T01:09:47.175Z,1.23
2023-04-19T01:12:49.640Z,0.82
2023-04-19T01:15:51.817Z,1.42
2023-04-19T01:18:56.273Z,1.27
2023-04-19T01:21:58.385Z,0.73
2023-04-19T01:25:01.301Z,1.00
2023-04-19T01:28:03.421Z,1.40
2023-04-19T01:31:05.506Z,1.10
2023-04-19T01:34:07.715Z,1.10
2023-04-19T01:37:09.653Z,1.17
2023-04-19T01:40:12.109Z,1.17
2023-04-19T01:43:17.309Z,1.40
2023-04-19T01:46:19.303Z,1.40
2023-04-19T01:49:21.342Z,1.20
2023-04-19T01:52:24.263Z,0.85
2023-04-19T01:55:26.545Z,1.05
2023-04-19T01:58:28.526Z,0.90
2023-04-19T02:01:30.525Z,1.13
2023-04-19T02:04:34.484Z,1.40
2023-04-19T02:07:36.475Z,1.13
2023-04-19T02:10:38.536Z,1.02
2023-04-19T02:13:42.062Z,1.45
2023-04-19T02:16:44.100Z,1.23
2023-04-19T02:19:46.537Z,1.20
2023-04-19T02:22:48.435Z,1.10
2023-04-19T02:25:51.533Z,0.88
2023-04-19T02:28:54.065Z,1.13
2023-04-19T02:31:56.179Z,1.30
2023-04-19T02:34:58.213Z,1.57
2023-04-19T02:38:02.442Z,1.00
2023-04-19T02:41:06.199Z,1.23
2023-04-19T02:44:08.686Z,0.93
2023-04-19T02:47:10.588Z,1.08
2023-04-19T02:50:13.704Z,1.10
2023-04-19T02:53:21.526Z,1.30
2023-04-19T02:56:24.901Z,1.10
2023-04-19T02:59:27.160Z,0.80
2023-04-19T03:02:31.011Z,1.15
2023-04-19T03:05:33.549Z,1.33
2023-04-19T03:08:36.740Z,1.58
2023-04-19T03:11:39.060Z,0.80
2023-04-19T03:14:41.959Z,1.53
2023-04-19T03:17:44.471Z,1.05
2023-04-19T03:20:47.128Z,0.80
2023-04-19T03:23:49.139Z,1.10
2023-04-19T03:26:51.457Z,0.90
2023-04-19T03:29:58.590Z,0.97
2023-04-19T03:33:01.573Z,0.52
2023-04-19T03:36:03.778Z,0.82
2023-04-19T03:39:06.327Z,1.15
2023-04-19T03:42:08.510Z,0.90
2023-04-19T03:45:10.942Z,1.30
2023-04-19T03:48:17.082Z,1.10
2023-04-19T03:51:19.475Z,0.90
2023-04-19T03:54:21.481Z,1.00
2023-04-19T03:57:23.490Z,1.27
2023-04-19T04:00:27.501Z,0.73
2023-04-19T04:03:34.552Z,1.00
2023-04-19T04:06:38.610Z,1.00
2023-04-19T04:09:40.615Z,1.00
2023-04-19T04:12:42.745Z,0.68
2023-04-19T04:15:48.757Z,0.80
2023-04-19T04:18:51.934Z,1.17
2023-04-19T04:21:54.151Z,0.80
2023-04-19T04:24:58.228Z,0.60
2023-04-19T04:28:09.177Z,0.90
2023-04-19T04:31:13.070Z,0.77
2023-04-19T04:34:17.165Z,0.93
2023-04-19T04:37:25.803Z,1.08
2023-04-19T04:40:28.377Z,0.57
2023-04-19T04:43:30.408Z,0.73
2023-04-19T04:46:32.533Z,0.60
2023-04-19T04:49:34.978Z,0.68
2023-04-19T04:52:37.076Z,0.70
2023-04-19T04:55:45.190Z,0.98
2023-04-19T04:58:49.350Z,0.98
2023-04-19T05:02:00.944Z,0.90
2023-04-19T05:05:03.689Z,0.68
2023-04-19T05:08:06.331Z,1.30
2023-04-19T05:11:09.065Z,0.90
2023-04-19T05:14:12.972Z,1.23
2023-04-19T05:17:15.172Z,1.10
2023-04-19T05:20:17.670Z,1.00
2023-04-19T05:23:21.596Z,0.85
2023-04-19T05:26:25.730Z,0.80
2023-04-19T05:29:29.350Z,1.02
2023-04-19T05:32:32.048Z,1.13
2023-04-19T05:35:36.854Z,0.85
2023-04-19T05:38:39.007Z,1.15
2023-04-19T05:41:42.294Z,1.20
2023-04-19T05:44:44.424Z,0.75
2023-04-19T05:47:47.184Z,0.83
2023-04-19T05:51:01.157Z,1.15
2023-04-19T05:54:17.948Z,1.08
2023-04-19T05:57:22.944Z,1.10
2023-04-19T06:00:25.361Z,1.13
2023-04-19T06:03:35.599Z,1.20
2023-04-19T06:06:38.207Z,1.15
2023-04-19T06:09:41.034Z,1.20
2023-04-19T06:12:43.460Z,1.13
2023-04-19T06:15:46.196Z,1.02
2023-04-19T06:18:48.219Z,1.23
2023-04-19T06:21:50.871Z,1.42
2023-04-19T06:24:52.874Z,1.38
2023-04-19T06:27:54.807Z,1.00
2023-04-19T06:30:56.878Z,1.20
2023-04-19T06:33:58.948Z,1.10
2023-04-19T06:37:01.139Z,1.17
2023-04-19T06:40:05.369Z,1.20
2023-04-19T06:43:07.472Z,1.00
2023-04-19T06:46:10.023Z,1.17
2023-04-19T06:49:12.573Z,1.57
2023-04-19T06:52:14.622Z,1.25
2023-04-19T06:55:16.663Z,1.33
2023-04-19T06:58:18.586Z,1.40
2023-04-19T07:01:21.098Z,1.38
2023-04-19T07:04:23.427Z,1.40
2023-04-19T07:07:25.538Z,1.60
2023-04-19T07:10:27.629Z,1.50
2023-04-19T07:13:29.990Z,1.48
2023-04-19T07:16:32.877Z,1.00
2023-04-19T07:19:36.235Z,1.50
2023-04-19T07:22:38.387Z,1.92
2023-04-19T07:25:40.488Z,1.30
2023-04-19T07:28:42.717Z,1.60
2023-04-19T07:31:44.851Z,1.70
2023-04-19T07:34:47.069Z,1.27
2023-04-19T07:37:49.018Z,1.63
2023-04-19T07:40:51.630Z,1.45
2023-04-19T07:43:54.149Z,1.48
2023-04-19T07:46:56.536Z,1.70
2023-04-19T07:49:58.982Z,1.93
2023-04-19T07:53:01.044Z,1.48
2023-04-19T07:56:03.684Z,1.30
2023-04-19T07:59:08.985Z,1.70
2023-04-19T08:02:11.922Z,1.30
2023-04-19T08:05:17.690Z,1.70
2023-04-19T08:08:19.920Z,1.48
2023-04-19T08:11:22.255Z,2.00
2023-04-19T08:14:37.724Z,1.42
2023-04-19T08:17:46.081Z,1.40
2023-04-19T08:20:48.407Z,1.60
2023-04-19T08:23:52.634Z,1.10
2023-04-19T08:26:57.519Z,1.40
2023-04-19T08:30:00.811Z,1.30
2023-04-19T08:33:03.114Z,1.58
2023-04-19T08:36:05.418Z,1.43
2023-04-19T08:39:12.590Z,1.27
2023-04-19T08:42:32.867Z,1.30
2023-04-19T08:45:38.128Z,1.58
2023-04-19T08:48:41.175Z,1.55
2023-04-19T08:51:44.580Z,1.37
2023-04-19T08:54:46.981Z,1.40
2023-04-19T08:57:48.979Z,1.38
2023-04-19T09:00:51.037Z,1.52
2023-04-19T09:04:04.889Z,1.70
2023-04-19T09:07:23.653Z,1.13
2023-04-19T09:10:26.369Z,1.70
2023-04-19T09:13:29.644Z,1.48
2023-04-19T09:16:31.634Z,1.33
2023-04-19T09:19:47.066Z,1.40
2023-04-19T09:23:07.329Z,1.77
2023-04-19T09:26:22.179Z,1.40
2023-04-19T09:29:26.922Z,1.55
2023-04-19T09:32:30.145Z,1.38
2023-04-19T09:35:49.653Z,1.25
2023-04-19T09:38:51.824Z,1.23
2023-04-19T09:41:54.865Z,1.23
2023-04-19T09:48:10.007Z,1.20
2023-04-19T09:51:14.444Z,1.20
2023-04-19T09:54:18.845Z,1.03
2023-04-19T09:57:21.067Z,1.45
2023-04-19T10:00:23.420Z,1.23
2023-04-19T10:03:29.612Z,1.30
2023-04-19T10:06:51.819Z,1.20
2023-04-19T10:10:08.169Z,1.03
2023-04-19T10:13:21.850Z,1.30
2023-04-19T10:16:26.511Z,1.05
2023-04-19T10:19:29.929Z,1.30
2023-04-19T10:22:32.444Z,1.35
2023-04-19T10:25:37.798Z,0.93
2023-04-19T10:28:42.094Z,1.23
2023-04-19T10:31:44.173Z,1.33
2023-04-19T10:34:46.450Z,1.77
2023-04-19T10:38:15.180Z,1.27
2023-04-19T10:41:19.184Z,1.13
2023-04-19T10:44:21.229Z,1.45
2023-04-19T10:47:43.627Z,1.40
2023-04-19T10:51:02.589Z,1.50
2023-04-19T10:54:05.960Z,1.20
2023-04-19T10:57:11.691Z,1.20
2023-04-19T11:00:21.682Z,1.00
2023-04-19T11:03:45.639Z,1.13
2023-04-19T11:06:53.613Z,1.50
2023-04-19T11:09:55.851Z,1.55
2023-04-19T11:12:58.415Z,1.67
2023-04-19T11:16:00.476Z,1.17
2023-04-19T11:19:02.478Z,1.33
2023-04-19T11:22:04.847Z,1.63
2023-04-19T11:25:21.873Z,1.55
2023-04-19T11:28:24.681Z,1.67
2023-04-19T11:31:26.849Z,1.15
2023-04-19T11:34:39.070Z,1.40
2023-04-19T11:37:41.021Z,1.40
2023-04-19T11:40:43.239Z,1.33
2023-04-19T11:43:46.844Z,1.33
2023-04-19T11:46:59.683Z,1.40
2023-04-19T11:50:35.562Z,1.55
2023-04-19T11:53:40.018Z,1.17
2023-04-19T11:57:00.256Z,1.58
2023-04-19T12:00:10.992Z,1.40
2023-04-19T12:03:16.342Z,1.40
2023-04-19T12:06:23.565Z,1.30
2023-04-19T12:09:26.443Z,1.35
2023-04-19T12:12:32.468Z,1.30
2023-04-19T12:15:44.694Z,1.43
2023-04-19T12:18:50.287Z,1.30
2023-04-19T12:21:52.462Z,1.20
2023-04-19T12:24:55.381Z,2.88
2023-04-19T12:27:58.085Z,1.20
2023-04-19T12:31:00.054Z,1.73
2023-04-19T12:34:02.101Z,1.17
2023-04-19T12:37:04.493Z,1.50
2023-04-19T12:40:07.520Z,1.77
2023-04-19T12:43:09.630Z,1.27
2023-04-19T12:46:11.586Z,1.50
2023-04-19T12:49:14.149Z,1.48
2023-04-19T12:52:16.409Z,1.35
2023-04-19T12:55:18.462Z,1.42
2023-04-19T12:58:21.339Z,1.48
2023-04-19T13:01:23.667Z,1.50
2023-04-19T13:04:26.269Z,1.70
2023-04-19T13:07:28.705Z,2.90
2023-04-19T13:10:31.249Z,2.63
2023-04-19T13:13:34.803Z,2.83
2023-04-19T13:16:36.804Z,2.27
2023-04-19T13:19:38.748Z,2.67
2023-04-19T13:22:40.826Z,2.70
2023-04-19T13:25:43.156Z,2.53
2023-04-19T13:28:45.223Z,2.42
2023-04-19T13:31:47.372Z,2.40
2023-04-19T13:34:49.522Z,2.60
2023-04-19T13:37:52.048Z,2.55
2023-04-19T13:40:54.221Z,2.42
2023-04-19T13:43:56.281Z,2.17
2023-04-19T13:46:59.218Z,2.63
2023-04-19T13:50:01.381Z,2.38
2023-04-19T13:53:03.420Z,2.67
2023-04-19T13:56:09.289Z,2.63
2023-04-19T13:59:11.323Z,3.38
2023-04-19T14:02:13.358Z,3.00
2023-04-19T14:05:15.392Z,2.90
2023-04-19T14:08:17.379Z,3.20
2023-04-19T14:11:19.693Z,2.60
2023-04-19T14:14:21.769Z,2.83
2023-04-19T14:17:23.786Z,2.20
2023-04-19T14:20:26.025Z,2.35
2023-04-19T14:23:28.056Z,2.70
2023-04-19T14:26:29.991Z,2.92
2023-04-19T14:29:32.349Z,2.90
2023-04-19T14:32:34.911Z,2.07
2023-04-19T14:35:36.943Z,2.10
2023-04-19T14:38:39.144Z,2.92
2023-04-19T14:41:41.830Z,3.08
2023-04-19T14:44:44.116Z,2.72
2023-04-19T14:47:46.305Z,3.00
2023-04-19T14:50:48.976Z,2.45
2023-04-19T14:53:51.319Z,3.08
2023-04-19T14:56:53.794Z,2.92
2023-04-19T14:59:58.174Z,2.85
2023-04-19T15:03:01.337Z,3.07
2023-04-19T15:06:04.529Z,3.00
2023-04-19T15:09:06.501Z,3.42
2023-04-19T15:12:08.805Z,3.17
2023-04-19T15:15:11.154Z,3.33
2023-04-19T15:18:13.170Z,2.37
2023-04-19T15:21:25.189Z,3.15
2023-04-19T15:24:27.316Z,3.05
2023-04-19T15:27:29.623Z,3.35
2023-04-19T15:30:31.727Z,4.15
2023-04-19T15:33:35.980Z,3.90
2023-04-19T15:36:37.959Z,3.72
2023-04-19T15:39:39.959Z,2.85
2023-04-19T15:42:41.971Z,3.35
2023-04-19T15:45:43.917Z,2.72
2023-04-19T15:48:46.932Z,3.27
2023-04-19T15:51:48.896Z,3.50
2023-04-19T15:54:51.971Z,2.65
2023-04-19T15:57:53.933Z,3.38
2023-04-19T16:00:56.073Z,3.55
2023-04-19T16:03:58.578Z,4.97
2023-04-19T16:07:00.650Z,4.75
2023-04-19T16:10:05.465Z,5.38
2023-04-19T16:13:07.731Z,4.57
2023-04-19T16:16:09.699Z,4.85
2023-04-19T16:19:11.699Z,3.33
2023-04-19T16:22:13.731Z,3.70
2023-04-19T16:25:16.684Z,3.22
2023-04-19T16:28:19.802Z,2.90
2023-04-19T16:31:22.040Z,2.90
2023-04-19T16:34:25.463Z,3.73
2023-04-19T16:37:27.455Z,3.10
2023-04-19T16:40:29.592Z,3.42
2023-04-19T16:43:31.882Z,3.33
2023-04-19T16:46:33.930Z,3.55
2023-04-19T16:49:36.027Z,4.83
2023-04-19T16:52:38.178Z,4.40
2023-04-19T16:55:40.164Z,4.95
2023-04-19T16:58:42.267Z,4.55
2023-04-19T17:01:44.615Z,5.50
2023-04-19T17:04:47.013Z,4.60
2023-04-19T17:07:50.470Z,6.55
2023-04-19T17:10:52.598Z,5.78
2023-04-19T17:13:56.654Z,5.68
2023-04-19T17:16:58.774Z,4.82
2023-04-19T17:20:01.618Z,4.67
2023-04-19T17:23:03.562Z,3.42
2023-04-19T17:26:05.796Z,2.75
2023-04-19T17:29:08.840Z,2.78
2023-04-19T17:32:11.060Z,3.30
2023-04-19T17:35:13.132Z,1.90
2023-04-19T17:38:15.155Z,1.55
2023-04-19T17:41:17.412Z,1.50
2023-04-19T17:44:19.384Z,1.05
2023-04-19T17:47:21.388Z,1.50
2023-04-19T17:50:23.640Z,1.27
2023-04-19T17:53:25.702Z,1.17
2023-04-19T17:56:27.668Z,1.40
2023-04-19T17:59:29.701Z,1.08
2023-04-19T18:02:32.046Z,1.50
2023-04-19T18:05:34.278Z,1.70
2023-04-19T18:08:36.370Z,2.13
2023-04-19T18:11:38.541Z,3.85
2023-04-19T18:14:40.883Z,6.25
2023-04-19T18:17:42.886Z,10.48
2023-04-19T18:20:45.019Z,14.57
2023-04-19T18:23:46.977Z,15.05
2023-04-19T18:26:49.187Z,11.75
2023-04-19T18:29:52.375Z,9.70
2023-04-19T18:32:54.509Z,8.43
2023-04-19T18:35:57.841Z,8.80
2023-04-19T18:38:59.945Z,6.57
2023-04-19T18:42:02.117Z,4.40
2023-04-19T18:45:04.540Z,3.60
2023-04-19T18:48:06.944Z,3.88
2023-04-19T18:51:10.125Z,4.30
2023-04-19T18:54:12.371Z,4.50
2023-04-19T18:57:23.113Z,4.15
2023-04-19T19:00:28.719Z,3.50
2023-04-19T19:03:53.924Z,3.85
2023-04-19T19:06:53.073Z,6.17
2023-04-19T19:09:56.496Z,5.57
2023-04-19T19:12:58.880Z,6.32
2023-04-19T19:16:00.874Z,6.93
2023-04-19T19:19:03.345Z,7.07
2023-04-19T19:22:14.870Z,6.83
2023-04-19T19:25:25.505Z,5.38
2023-04-19T19:28:27.786Z,6.65
2023-04-19T19:31:29.862Z,6.97
2023-04-19T19:34:40.806Z,6.15
2023-04-19T19:37:49.414Z,7.60
2023-04-19T19:43:57.296Z,6.13
2023-04-19T19:46:59.322Z,6.70
2023-04-19T19:50:46.652Z,6.13
2023-04-19T19:53:27.024Z,5.55
2023-04-19T19:56:29.227Z,6.50
2023-04-19T19:59:34.968Z,5.25
2023-04-19T20:05:42.593Z,7.17
2023-04-19T20:08:45.486Z,7.35
2023-04-19T20:11:47.606Z,7.57
2023-04-19T20:14:50.151Z,7.97
2023-04-19T20:17:52.135Z,8.73
2023-04-19T20:20:54.549Z,7.37
2023-04-19T20:23:56.629Z,9.50
2023-04-19T20:26:58.700Z,9.25
2023-04-19T20:30:00.967Z,9.65
2023-04-19T20:33:03.156Z,12.40
2023-04-19T20:36:06.745Z,10.83
2023-04-19T20:39:13.091Z,11.20
2023-04-19T20:42:15.253Z,12.23
2023-04-19T20:45:17.270Z,13.05
2023-04-19T20:48:19.360Z,9.77
2023-04-19T20:51:21.595Z,9.50
2023-04-19T20:54:23.744Z,7.55
2023-04-19T20:57:25.778Z,5.63
2023-04-19T21:00:28.272Z,5.18
2023-04-19T21:03:30.806Z,5.72
2023-04-19T21:06:33.129Z,4.65
2023-04-19T21:09:35.711Z,5.32
2023-04-19T21:12:37.782Z,4.80
2023-04-19T21:15:39.829Z,5.85
2023-04-19T21:18:41.982Z,4.65
2023-04-19T21:21:43.936Z,4.50
2023-04-19T21:24:46.062Z,4.30
2023-04-19T21:27:48.052Z,4.68
2023-04-19T21:30:51.244Z,4.63
2023-04-19T21:33:53.199Z,4.43
2023-04-19T21:36:55.293Z,3.85
2023-04-19T21:39:57.820Z,3.57
2023-04-19T21:42:59.877Z,3.97
2023-04-19T21:46:04.740Z,2.33
2023-04-19T21:49:06.979Z,2.50
2023-04-19T21:52:09.181Z,3.30
2023-04-19T21:55:11.150Z,3.10
2023-04-19T21:58:13.252Z,4.28
2023-04-19T22:01:15.416Z,3.40
2023-04-19T22:04:18.746Z,3.85
2023-04-19T22:07:23.850Z,2.33
2023-04-19T22:10:26.254Z,3.65
2023-04-19T22:13:28.477Z,3.50
2023-04-19T22:16:32.653Z,2.13
2023-04-19T22:19:34.735Z,3.28
2023-04-19T22:22:36.758Z,2.63
2023-04-19T22:25:38.717Z,2.47
2023-04-19T22:28:41.022Z,2.80
2023-04-19T22:31:43.198Z,3.03
2023-04-19T22:34:45.253Z,2.83
2023-04-19T22:37:47.225Z,3.47
2023-04-19T22:40:49.256Z,2.70
2023-04-19T22:43:51.442Z,2.30
2023-04-19T22:46:53.437Z,3.10
2023-04-19T22:49:55.513Z,2.17
2023-04-19T22:52:57.526Z,2.25
2023-04-19T22:55:59.601Z,2.42
2023-04-19T22:59:01.687Z,2.72
2023-04-19T23:02:03.774Z,3.07
2023-04-19T23:05:06.581Z,2.05
2023-04-19T23:08:09.357Z,2.67
2023-04-19T23:11:11.797Z,2.53
2023-04-19T23:14:14.005Z,1.97
2023-04-19T23:17:17.169Z,3.17
2023-04-19T23:20:19.288Z,2.88
2023-04-19T23:23:21.812Z,3.72
2023-04-19T23:26:24.291Z,2.53
2023-04-19T23:29:26.783Z,2.50
2023-04-19T23:32:28.795Z,2.97
2023-04-19T23:35:30.904Z,3.05
2023-04-19T23:38:33.087Z,3.20
2023-04-19T23:41:35.368Z,2.17
2023-04-19T23:44:38.838Z,2.20
2023-04-19T23:47:40.880Z,2.90
2023-04-19T23:50:44.784Z,2.70
2023-04-19T23:53:47.029Z,2.53
2023-04-19T23:56:52.006Z,1.95
2023-04-19T23:59:54.030Z,2.53
